Time;durP1;ratioP1;P1;durP2;ratioP2;P2;SDS_P1;SDS_P2;PMS_P1;PMS_P2;Temp;Humidity;BMP_temperature;BMP_pressure;BME280_temperature;BME280_humidity;BME280_pressure;Samples;Min_cycle;Max_cycle;Signal;HPM_P1;HPM_P2
2022/05/05 00:01:34;;;;;;;;;14.00;14.00;;;;;16.68;63.58;101353.94;5084676;27;45752;-77
2022/05/05 00:07:21;;;;;;;;;18.00;16.33;;;;;16.60;63.53;101347.69;5101417;27;45488;-77
2022/05/05 00:09:47;;;;;;;;;17.00;17.00;;;;;16.64;63.38;101353.97;5101744;27;45840;-76
2022/05/05 00:15:05;;;;;;;;;17.00;14.00;;;;;16.50;63.37;101364.72;5080333;28;45381;-77
2022/05/05 00:17:34;;;;;;;;;15.33;15.33;;;;;16.44;62.92;101362.94;5079507;28;45634;-76
2022/05/05 00:19:59;;;;;;;;;13.67;13.67;;;;;16.33;63.51;101364.72;5081510;28;46440;-76
2022/05/05 00:22:25;;;;;;;;;19.33;17.00;;;;;16.23;63.40;101350.41;5079658;28;45536;-76
2022/05/05 00:24:50;;;;;;;;;17.33;15.33;;;;;16.23;63.38;101357.56;5079880;28;45417;-76
2022/05/05 00:27:16;;;;;;;;;15.67;13.67;;;;;16.25;63.43;101367.41;5077124;28;45862;-76
2022/05/05 00:29:42;;;;;;;;;17.67;16.67;;;;;16.28;63.14;101354.00;5076343;28;47416;-76
2022/05/05 00:32:08;;;;;;;;;13.00;13.00;;;;;16.28;62.90;101361.13;5076909;28;45761;-77
2022/05/05 00:34:33;;;;;;;;;14.33;14.00;;;;;16.26;63.05;101357.53;5078559;28;45425;-77
2022/05/05 00:36:59;;;;;;;;;16.00;14.00;;;;;16.29;62.71;101361.13;5078261;28;45405;-76
2022/05/05 00:39:24;;;;;;;;;12.67;12.67;;;;;16.27;62.69;101356.66;5078896;28;46018;-77
2022/05/05 00:41:52;;;;;;;;;17.00;15.00;;;;;16.27;62.34;101356.66;5080001;27;45513;-77
2022/05/05 00:44:17;;;;;;;;;15.00;14.00;;;;;16.20;62.48;101359.34;5075026;27;45460;-76
2022/05/05 00:46:48;;;;;;;;;16.00;14.00;;;;;16.20;61.91;101359.34;5075343;28;45384;-76
2022/05/05 00:49:14;;;;;;;;;14.67;13.67;;;;;16.05;61.78;101359.31;5076312;28;46173;-76
2022/05/05 00:51:39;;;;;;;;;10.33;10.00;;;;;15.94;61.77;101355.75;5078755;28;45589;-76
2022/05/05 00:54:05;;;;;;;;;14.00;14.00;;;;;15.94;61.91;101367.38;5076889;28;45534;-76
2022/05/05 00:56:30;;;;;;;;;13.67;12.33;;;;;15.90;61.52;101359.31;5078702;28;45420;-77
2022/05/05 00:58:57;;;;;;;;;13.67;13.00;;;;;15.90;61.45;101364.69;5076419;28;46610;-77
2022/05/05 01:01:23;;;;;;;;;14.00;11.33;;;;;15.80;61.70;101358.38;5077460;28;45530;-76
2022/05/05 01:03:50;;;;;;;;;14.67;13.67;;;;;15.83;61.84;101360.19;5078985;27;45505;-76
2022/05/05 01:06:16;;;;;;;;;11.67;11.33;;;;;15.71;61.85;101361.88;5078349;28;45520;-77
2022/05/05 01:08:43;;;;;;;;;9.00;9.00;;;;;15.62;62.43;101359.19;5075946;28;47033;-76
2022/05/05 01:11:08;;;;;;;;;15.33;13.00;;;;;15.56;62.20;101360.06;5078309;28;45483;-76
2022/05/05 01:13:38;;;;;;;;;9.00;9.00;;;;;15.57;62.17;101366.31;5077767;27;45498;-77
2022/05/05 01:16:04;;;;;;;;;12.33;12.33;;;;;15.47;62.90;101364.50;5077796;28;45400;-77
2022/05/05 01:18:30;;;;;;;;;14.00;13.33;;;;;15.39;62.98;101368.06;5077953;27;46419;-77
2022/05/05 01:20:55;;;;;;;;;13.00;9.67;;;;;15.30;62.63;101373.34;5074538;28;45895;-77
2022/05/05 01:23:22;;;;;;;;;10.00;10.00;;;;;15.23;63.19;101366.19;5074329;28;45626;-76
2022/05/05 01:28:39;;;;;;;;;11.00;9.33;;;;;15.29;63.27;101374.28;5075963;28;45819;-76
2022/05/05 01:31:04;;;;;;;;;13.67;11.00;;;;;15.22;63.17;101369.75;5075059;28;45404;-76
2022/05/05 01:33:30;;;;;;;;;10.00;10.00;;;;;15.19;63.33;101370.63;5077417;27;45752;-76
2022/05/05 01:35:57;;;;;;;;;12.00;12.00;;;;;15.17;63.60;101366.16;5077999;27;45984;-76
2022/05/05 01:38:25;;;;;;;;;14.00;13.00;;;;;15.16;63.91;101359.00;5077785;27;46286;-76
2022/05/05 01:40:51;;;;;;;;;14.00;12.33;;;;;15.09;63.85;101363.44;5076869;28;45448;-77
2022/05/05 01:43:19;;;;;;;;;10.67;8.33;;;;;15.08;63.56;101360.75;5077438;28;45690;-77
2022/05/05 01:45:46;;;;;;;;;12.00;11.00;;;;;15.05;63.92;101360.72;5077654;27;45787;-76
2022/05/05 01:48:13;;;;;;;;;17.33;14.00;;;;;15.00;63.43;101358.03;5075557;28;46762;-77
2022/05/05 01:50:39;;;;;;;;;12.33;12.00;;;;;14.94;63.32;101353.50;5074412;28;45464;-77
2022/05/05 01:53:05;;;;;;;;;14.00;12.67;;;;;14.91;63.26;101345.47;5074755;28;45517;-76
2022/05/05 01:55:32;;;;;;;;;7.33;7.33;;;;;14.95;63.92;101362.47;5076782;27;45507;-77
2022/05/05 01:57:58;;;;;;;;;11.00;11.00;;;;;14.89;63.55;101355.28;5074602;28;47043;-76
2022/05/05 02:00:26;;;;;;;;;11.33;10.33;;;;;14.91;63.72;101358.88;5075692;28;46013;-77
2022/05/05 02:02:51;;;;;;;;;10.67;10.67;;;;;14.86;63.80;101368.66;5074938;28;45846;-77
2022/05/05 02:05:17;;;;;;;;;9.67;9.67;;;;;14.83;63.96;101359.72;5078712;27;45427;-77
2022/05/05 02:07:43;;;;;;;;;11.00;11.00;;;;;14.85;63.61;101365.97;5078736;27;45392;-77
2022/05/05 02:10:14;;;;;;;;;12.67;12.00;;;;;14.86;63.94;101363.28;5081540;28;45476;-77
2022/05/05 02:12:40;;;;;;;;;12.00;10.67;;;;;14.78;63.55;101357.00;5078204;28;45472;-76
2022/05/05 02:15:06;;;;;;;;;11.33;11.33;;;;;14.76;63.97;101356.97;5076394;27;45467;-77
2022/05/05 02:17:33;;;;;;;;;12.33;12.00;;;;;14.76;63.90;101362.31;5075579;27;45499;-76
2022/05/05 02:20:04;;;;;;;;;12.33;12.33;;;;;14.78;64.00;101357.00;5075706;27;45497;-77
2022/05/05 02:22:30;;;;;;;;;11.33;11.00;;;;;14.68;63.88;101357.81;5075305;28;45788;-76
2022/05/05 02:24:55;;;;;;;;;14.00;13.67;;;;;14.63;64.39;101351.56;5076616;27;45504;-77
2022/05/05 02:27:21;;;;;;;;;12.33;12.33;;;;;14.59;64.43;101358.66;5078241;27;46739;-76
2022/05/05 02:29:48;;;;;;;;;12.67;11.67;;;;;14.63;64.70;101356.91;5076220;27;44909;-77
2022/05/05 02:32:14;;;;;;;;;12.00;12.00;;;;;14.62;64.49;101363.13;5076249;27;45482;-77
2022/05/05 02:34:40;;;;;;;;;16.00;14.00;;;;;14.55;64.79;101349.66;5075717;28;46018;-77
2022/05/05 02:39:49;;;;;;;;;18.00;15.00;;;;;14.48;65.20;101353.19;5077254;28;45974;-77
2022/05/05 02:42:17;;;;;;;;;12.67;11.67;;;;;14.49;65.79;101346.94;5076520;28;45365;-76
2022/05/05 02:44:43;;;;;;;;;12.00;12.00;;;;;14.47;65.63;101342.47;5077805;27;45415;-76
2022/05/05 02:47:09;;;;;;;;;13.33;12.00;;;;;14.43;65.87;101346.00;5074613;28;46657;-76
2022/05/05 02:49:35;;;;;;;;;15.33;12.00;;;;;14.36;66.09;101337.94;5075334;28;45851;-76
2022/05/05 02:52:00;;;;;;;;;13.67;13.67;;;;;14.41;65.95;101343.31;5075780;28;45514;-76
2022/05/05 02:57:10;;;;;;;;;14.00;13.33;;;;;14.26;68.74;101352.13;5077918;28;45431;-76
2022/05/05 02:59:35;;;;;;;;;16.00;13.00;;;;;14.25;68.05;101344.06;5075545;28;45558;-76
2022/05/05 03:02:00;;;;;;;;;4.33;3.67;;;;;14.25;70.09;101354.78;5077655;27;45768;-76
2022/05/05 03:04:26;;;;;;;;;16.67;15.00;;;;;14.25;68.29;101349.41;5076236;28;45460;-76
2022/05/05 03:06:52;;;;;;;;;20.00;14.00;;;;;14.33;68.95;101347.72;5076246;28;46897;-76
2022/05/05 03:09:18;;;;;;;;;15.67;14.00;;;;;14.25;69.07;101344.97;5077106;27;45740;-77
2022/05/05 03:11:43;;;;;;;;;14.00;14.00;;;;;14.33;68.58;101363.75;5076138;28;45474;-76
2022/05/05 03:14:09;;;;;;;;;17.67;16.00;;;;;14.29;69.98;101357.47;5075445;28;45489;-77
2022/05/05 03:16:34;;;;;;;;;16.33;16.00;;;;;14.26;68.45;101357.47;5075247;28;47910;-77
2022/05/05 03:19:06;;;;;;;;;14.00;13.67;;;;;14.26;69.36;101351.19;5073881;28;46031;-77
2022/05/05 03:21:32;;;;;;;;;16.67;12.67;;;;;14.14;69.92;101347.56;5078257;28;45538;-78
2022/05/05 03:23:57;;;;;;;;;16.00;15.00;;;;;14.19;69.40;101360.97;5081578;28;45471;-75
2022/05/05 03:26:23;;;;;;;;;14.33;13.33;;;;;14.14;70.66;101360.03;5074954;28;47047;-76
2022/05/05 03:28:48;;;;;;;;;21.67;16.33;;;;;14.12;70.35;101357.34;5074468;28;45455;-77
2022/05/05 03:31:14;;;;;;;;;18.33;15.67;;;;;14.13;70.44;101358.22;5075768;28;45070;-76
2022/05/05 03:33:39;;;;;;;;;16.00;14.33;;;;;14.12;70.88;101359.13;5078706;28;45351;-77
2022/05/05 03:36:05;;;;;;;;;15.00;15.00;;;;;14.07;70.87;101351.03;5078884;28;46354;-76
2022/05/05 03:38:30;;;;;;;;;14.67;14.00;;;;;14.10;70.87;101356.44;5077506;28;45779;-76
2022/05/05 03:40:56;;;;;;;;;14.00;14.00;;;;;14.15;71.14;101359.13;5078075;28;45779;-76
2022/05/05 03:43:21;;;;;;;;;15.67;15.67;;;;;14.11;71.03;101351.97;5078399;28;45556;-76
2022/05/05 03:45:47;;;;;;;;;19.33;17.33;;;;;14.14;70.90;101366.28;5078801;28;48168;-76
2022/05/05 03:48:13;;;;;;;;;15.33;14.00;;;;;14.12;71.36;101370.72;5079780;28;45454;-76
2022/05/05 03:50:38;;;;;;;;;20.67;14.00;;;;;14.13;71.04;101367.13;5077473;28;45398;-76
2022/05/05 03:53:05;;;;;;;;;15.00;13.67;;;;;14.26;70.64;101372.59;5079733;28;45445;-76
2022/05/05 03:55:30;;;;;;;;;16.00;14.00;;;;;14.19;70.56;101368.97;5078153;28;45457;-76
2022/05/05 03:57:56;;;;;;;;;17.67;16.67;;;;;14.24;70.59;101371.69;5077980;28;45825;-76
2022/05/05 04:00:22;;;;;;;;;18.00;15.00;;;;;14.24;70.63;101374.38;5082322;28;45463;-76
2022/05/05 04:03:30;;;;;;;;;8.33;7.67;;;;;14.17;70.59;101365.41;5079479;28;45532;-77
2022/05/05 04:05:37;;;;;;;;;12.00;12.00;;;;;14.17;70.88;101368.97;5078140;27;45495;-77
2022/05/05 04:08:04;;;;;;;;;12.67;12.67;;;;;14.24;70.68;101379.72;5078401;27;45392;-77
2022/05/05 04:10:30;;;;;;;;;14.33;14.33;;;;;14.19;70.86;101371.66;5079432;27;45764;-76
2022/05/05 04:12:55;;;;;;;;;14.00;14.00;;;;;14.23;70.94;101377.94;5077428;28;45492;-77
2022/05/05 04:15:21;;;;;;;;;14.00;14.00;;;;;14.29;72.24;101386.03;5077414;28;46928;-76
2022/05/05 04:17:47;;;;;;;;;13.33;11.67;;;;;14.24;71.96;101380.63;5078417;28;45859;-76
2022/05/05 04:20:12;;;;;;;;;13.00;12.00;;;;;14.24;71.18;101387.75;5080145;28;46264;-76
2022/05/05 04:22:39;;;;;;;;;17.00;14.00;;;;;14.29;71.55;101383.34;5079911;28;45486;-77
2022/05/05 04:25:05;;;;;;;;;7.00;7.00;;;;;14.28;71.29;101395.84;5080912;28;45578;-77
2022/05/05 04:27:32;;;;;;;;;13.33;13.33;;;;;14.28;71.49;101398.50;5078264;28;45767;-76
2022/05/05 04:29:57;;;;;;;;;14.00;14.00;;;;;14.31;71.44;101394.97;5078311;28;45377;-76
2022/05/05 04:32:23;;;;;;;;;13.33;13.33;;;;;14.34;71.41;101403.91;5082785;28;45804;-76
2022/05/05 04:34:50;;;;;;;;;15.00;13.33;;;;;14.35;72.21;101400.34;5081355;28;45361;-76
2022/05/05 04:37:15;;;;;;;;;14.33;14.33;;;;;14.31;71.44;101397.63;5078164;28;45426;-76
2022/05/05 04:39:43;;;;;;;;;16.67;16.67;;;;;14.39;71.43;101401.28;5079186;27;45834;-77
2022/05/05 04:42:10;;;;;;;;;16.33;14.67;;;;;14.31;71.84;101397.63;5077324;28;45600;-76
2022/05/05 04:44:35;;;;;;;;;13.67;13.33;;;;;14.37;72.50;101403.03;5076660;27;45423;-77
2022/05/05 04:47:04;;;;;;;;;16.00;12.33;;;;;14.45;73.36;101405.78;5079684;28;45815;-77
2022/05/05 04:49:31;;;;;;;;;19.67;14.67;;;;;14.40;73.38;101398.63;5081258;28;45389;-77
2022/05/05 04:51:56;;;;;;;;;22.00;18.00;;;;;14.51;72.17;101401.38;5084090;28;45528;-78
2022/05/05 04:54:22;;;;;;;;;18.33;17.67;;;;;14.47;74.05;101399.56;5082285;28;45488;-76
2022/05/05 04:56:47;;;;;;;;;15.67;15.00;;;;;14.55;73.86;101404.97;5080631;28;45772;-76
2022/05/05 04:59:13;;;;;;;;;20.00;20.00;;;;;14.56;74.68;101410.41;5081345;27;45454;-77
2022/05/05 05:01:39;;;;;;;;;22.00;22.00;;;;;14.64;74.09;101412.22;5080860;27;45404;-77
2022/05/05 05:04:06;;;;;;;;;15.67;13.67;;;;;14.72;73.72;101405.13;5079508;28;46968;-76
2022/05/05 05:06:32;;;;;;;;;18.00;18.00;;;;;14.75;74.94;101405.19;5081526;27;45444;-77
2022/05/05 05:08:58;;;;;;;;;27.67;22.67;;;;;14.69;74.60;101395.31;5079972;28;45761;-77
2022/05/05 05:11:24;;;;;;;;;18.00;18.00;;;;;14.66;76.77;101411.34;5079773;28;45489;-76
2022/05/05 05:13:50;;;;;;;;;28.33;24.00;;;;;14.64;77.07;101412.22;5079503;28;46259;-76
2022/05/05 05:16:16;;;;;;;;;21.00;20.67;;;;;14.77;76.60;101406.09;5079605;28;45395;-76
2022/05/05 05:18:53;;;;;;;;;22.33;21.67;;;;;14.70;75.98;101413.16;5081934;27;45494;-76
2022/05/05 05:21:19;;;;;;;;;27.67;24.00;;;;;14.70;75.97;101417.63;5060570;28;45668;-77
2022/05/05 05:23:44;;;;;;;;;28.33;25.00;;;;;14.78;75.21;101415.91;5076850;28;48248;-77
2022/05/05 05:26:11;;;;;;;;;20.67;20.67;;;;;14.86;75.19;101414.16;5059153;28;45840;-77
2022/05/05 05:28:38;;;;;;;;;22.33;20.33;;;;;14.98;73.99;101419.59;5058538;28;45413;-77
2022/05/05 05:31:03;;;;;;;;;25.00;22.67;;;;;14.95;74.81;101434.78;5059324;28;45419;-77
2022/05/05 05:33:29;;;;;;;;;24.00;22.33;;;;;14.94;74.46;101432.97;5058155;28;45498;-77
2022/05/05 05:35:54;;;;;;;;;29.00;25.33;;;;;14.90;76.25;101431.16;5061283;28;45349;-77
2022/05/05 05:38:20;;;;;;;;;23.00;23.00;;;;;14.84;76.15;101436.47;5060223;28;45445;-77
2022/05/05 05:40:47;;;;;;;;;23.00;21.67;;;;;14.86;75.58;101435.59;5062342;28;45458;-77
2022/05/05 05:43:13;;;;;;;;;27.67;24.67;;;;;15.01;75.53;101424.13;5075639;28;47259;-76
2022/05/05 05:45:39;;;;;;;;;35.00;26.00;;;;;15.12;74.81;101435.78;5058834;28;45496;-76
2022/05/05 05:48:08;;;;;;;;;23.67;22.33;;;;;15.16;75.60;101425.97;5058581;28;45510;-76
2022/05/05 05:50:34;;;;;;;;;34.33;31.00;;;;;15.13;74.52;101436.69;5056880;28;45461;-76
2022/05/05 05:53:00;;;;;;;;;24.67;22.33;;;;;15.24;74.02;101434.06;5059002;28;46456;-77
2022/05/05 05:55:26;;;;;;;;;36.33;28.33;;;;;15.23;74.18;101418.88;5058067;28;45653;-77
2022/05/05 05:57:51;;;;;;;;;29.67;25.67;;;;;15.29;73.84;101425.19;5056808;28;45752;-76
2022/05/05 06:00:17;;;;;;;;;36.00;29.67;;;;;15.30;73.32;101429.63;5056965;28;44825;-76
2022/05/05 06:05:27;;;;;;;;;28.33;24.33;;;;;15.45;72.61;101431.53;5057441;28;45889;-76
2022/05/05 06:08:00;;;;;;;;;29.67;25.67;;;;;15.62;72.15;101426.22;5073315;28;45740;-76
2022/05/05 06:10:27;;;;;;;;;30.67;27.33;;;;;15.65;72.31;101436.94;5058362;28;45457;-76
2022/05/05 06:12:52;;;;;;;;;24.00;21.67;;;;;15.64;71.23;101443.22;5057646;28;45508;-77
2022/05/05 06:15:18;;;;;;;;;28.00;27.00;;;;;15.70;71.85;101439.69;5064129;28;45452;-77
2022/05/05 06:17:44;;;;;;;;;17.33;17.33;;;;;15.78;71.49;101440.63;5060480;28;45635;-77
2022/05/05 06:20:10;;;;;;;;;21.33;19.00;;;;;16.01;70.75;101446.06;5076209;28;45461;-78
2022/05/05 06:22:37;;;;;;;;;22.00;22.00;;;;;16.12;69.97;101454.16;5068512;28;45751;-76
2022/05/05 06:25:04;;;;;;;;;26.00;23.00;;;;;16.13;69.88;101454.16;5080419;27;45422;-76
2022/05/05 06:27:30;;;;;;;;;28.67;24.67;;;;;16.17;69.76;101455.94;5079714;27;45505;-77
2022/05/05 06:36:43;;;;;;;;;27.00;27.00;;;;;15.51;71.78;101455.69;5075521;27;45436;-77
2022/05/05 06:39:08;;;;;;;;;23.33;21.00;;;;;15.50;73.20;101451.19;5058005;28;45320;-76
2022/05/05 06:41:34;;;;;;;;;30.67;28.67;;;;;15.67;74.32;101466.47;5078443;28;45496;-76
2022/05/05 06:44:00;;;;;;;;;26.00;24.00;;;;;15.76;73.26;101458.50;5075332;28;46918;-76
2022/05/05 06:46:27;;;;;;;;;25.33;24.67;;;;;15.87;72.30;101464.78;5082953;27;45887;-78
2022/05/05 06:52:16;;;;;;;;;35.00;29.67;;;;;15.90;72.93;101471.97;5070871;28;45493;-77
2022/05/05 06:54:41;;;;;;;;;29.33;25.33;;;;;15.85;72.92;101473.72;5087565;28;46923;-78
2022/05/05 06:57:07;;;;;;;;;28.67;28.00;;;;;15.86;72.47;101487.16;5100597;27;45416;-77
2022/05/05 06:59:32;;;;;;;;;16.33;14.33;;;;;15.71;73.42;101474.53;5075808;27;45739;-77
2022/05/05 07:02:07;;;;;;;;;32.67;31.00;;;;;15.68;75.87;101469.16;5075286;27;45646;-75
2022/05/05 07:07:20;;;;;;;;;22.33;21.00;;;;;15.85;74.73;101473.72;5062589;28;45473;-79
2022/05/05 07:12:36;;;;;;;;;32.33;30.67;;;;;16.08;72.42;101481.84;5038449;28;45398;-78
2022/05/05 07:15:02;;;;;;;;;36.00;29.67;;;;;15.93;74.04;101488.97;5045835;28;45584;-80
2022/05/05 07:17:29;;;;;;;;;31.33;30.67;;;;;15.80;74.51;101484.44;5031567;28;45327;-79
2022/05/05 07:19:55;;;;;;;;;33.00;28.33;;;;;15.78;73.64;101495.16;5048841;28;45398;-77
2022/05/05 07:22:21;;;;;;;;;31.67;28.67;;;;;15.93;73.80;101490.75;5048457;28;45505;-78
2022/05/05 07:24:51;;;;;;;;;32.67;26.33;;;;;15.93;73.83;101488.06;5033864;28;46235;-80
2022/05/05 07:27:21;;;;;;;;;23.67;21.33;;;;;15.94;73.61;101501.50;5051850;28;45552;-79
2022/05/05 07:29:47;;;;;;;;;26.67;24.33;;;;;15.92;73.24;101500.59;5029504;28;45409;-81
2022/05/05 07:33:06;;;;;;;;;33.33;27.67;;;;;16.14;72.54;101498.88;5043997;28;45434;-80
2022/05/05 07:35:32;;;;;;;;;26.67;25.33;;;;;16.25;71.39;101500.72;5027260;28;47289;-79
2022/05/05 07:37:59;;;;;;;;;25.67;24.00;;;;;16.32;70.99;101497.13;5023754;28;45122;-80
2022/05/05 07:40:24;;;;;;;;;27.00;24.00;;;;;16.31;70.63;101489.97;5025895;28;45446;-79
2022/05/05 07:42:50;;;;;;;;;27.33;24.67;;;;;16.45;69.97;101498.06;5026764;28;45684;-79
2022/05/05 07:45:19;;;;;;;;;30.67;28.00;;;;;16.51;69.98;101508.81;5029718;28;48019;-78
2022/05/05 07:47:46;;;;;;;;;29.00;28.00;;;;;16.55;70.30;101479.28;5028419;28;45709;-80
2022/05/05 07:50:14;;;;;;;;;26.67;24.00;;;;;16.77;69.04;101477.50;5085565;27;45387;-81
2022/05/05 07:52:40;;;;;;;;;24.33;22.33;;;;;16.97;67.46;101503.53;5069872;28;45617;-80
2022/05/05 07:55:08;;;;;;;;;33.00;26.33;;;;;16.84;67.25;101494.56;5079989;28;47108;-80
2022/05/05 07:57:55;;;;;;;;;28.67;26.67;;;;;17.05;67.34;101516.94;5071295;28;45650;-80
2022/05/05 08:00:21;;;;;;;;;28.67;26.33;;;;;17.03;67.04;101508.91;5088308;28;45459;-79
2022/05/05 08:02:47;;;;;;;;;26.33;24.67;;;;;17.10;67.87;101512.47;5083164;27;45473;-79
2022/05/05 08:05:14;;;;;;;;;25.00;23.67;;;;;17.29;66.67;101498.13;5084938;28;47569;-80
2022/05/05 08:07:43;;;;;;;;;25.00;23.00;;;;;17.68;64.92;101504.31;5089974;27;45523;-79
2022/05/05 08:10:10;;;;;;;;;21.33;18.67;;;;;17.67;65.26;101509.69;5083982;27;45303;-79
2022/05/05 08:12:36;;;;;;;;;26.33;23.67;;;;;17.91;64.55;101511.44;5071839;27;45292;-80
2022/05/05 08:15:04;;;;;;;;;26.67;25.67;;;;;18.02;63.51;101493.47;5092884;27;46774;-81
2022/05/05 08:17:50;;;;;;;;;20.33;19.33;;;;;18.19;62.18;101512.19;5080493;28;45515;-81
2022/05/05 08:20:15;;;;;;;;;24.00;21.33;;;;;18.33;61.00;101514.81;5087016;27;44834;-81
2022/05/05 08:22:41;;;;;;;;;23.33;23.00;;;;;18.28;61.25;101511.25;5109691;27;45491;-80
2022/05/05 08:30:38;;;;;;;;;27.00;24.00;;;;;19.25;59.69;101506.09;5086288;27;45325;-80
2022/05/05 08:36:26;;;;;;;;;27.00;23.33;;;;;19.62;58.03;101511.09;5106715;27;45463;-80
2022/05/05 08:38:53;;;;;;;;;22.33;20.00;;;;;19.55;57.17;101520.16;5065456;28;45511;-82
2022/05/05 08:41:22;;;;;;;;;27.67;26.67;;;;;19.20;55.95;101521.41;5080167;27;45389;-80
2022/05/05 08:44:14;;;;;;;;;26.00;24.67;;;;;19.08;57.54;101518.81;5094089;27;45553;-82
2022/05/05 08:46:48;;;;;;;;;10.00;9.67;;;;;19.05;56.32;101524.25;5093887;27;47200;-80
2022/05/05 08:49:16;;;;;;;;;23.67;23.33;;;;;19.15;56.36;101518.75;5084273;27;45244;-82
2022/05/05 08:51:44;;;;;;;;;18.00;16.00;;;;;19.24;55.92;101516.88;5091805;27;44941;-79
2022/05/05 08:54:16;;;;;;;;;18.00;18.00;;;;;19.36;56.36;101517.66;5106778;27;46018;-80
2022/05/05 08:56:43;;;;;;;;;19.00;19.00;;;;;19.33;55.55;101522.16;5083006;28;47586;-80
2022/05/05 09:02:38;;;;;;;;;21.67;20.00;;;;;19.66;54.50;101526.34;5095797;27;45484;-80
2022/05/05 09:05:08;;;;;;;;;19.67;19.33;;;;;19.24;54.90;101473.72;5086911;27;45597;-80
2022/05/05 09:07:49;;;;;;;;;17.33;16.00;;;;;19.61;54.11;101530.88;5105585;27;45439;-79
2022/05/05 09:10:17;;;;;;;;;19.33;18.33;;;;;19.35;54.71;101502.38;5078918;27;45441;-80
2022/05/05 09:13:21;;;;;;;;;19.67;18.33;;;;;19.26;54.17;101504.28;5086736;28;44905;-81
2022/05/05 09:15:48;;;;;;;;;19.67;16.67;;;;;19.06;53.73;101545.78;5000500;28;45540;-80
2022/05/05 09:18:19;;;;;;;;;22.33;18.00;;;;;19.01;54.50;101542.25;4985663;28;45498;-78
2022/05/05 09:20:49;;;;;;;;;20.67;18.67;;;;;18.92;54.81;101535.09;5009907;28;45339;-80
2022/05/05 09:23:36;;;;;;;;;14.00;13.67;;;;;18.85;54.00;101508.25;5002586;28;46020;-80
2022/05/05 09:26:06;;;;;;;;;13.00;13.00;;;;;19.15;54.08;101536.75;4990220;28;45527;-79
2022/05/05 09:28:35;;;;;;;;;16.00;13.33;;;;;19.16;53.09;101530.44;5002888;28;45619;-79
2022/05/05 09:31:09;;;;;;;;;16.33;14.33;;;;;19.35;53.12;101532.06;5002337;28;45408;-80
2022/05/05 09:33:37;;;;;;;;;16.67;14.00;;;;;19.54;53.03;101527.34;5002216;28;45536;-81
2022/05/05 09:36:05;;;;;;;;;17.33;16.00;;;;;19.59;52.29;101525.53;5000944;28;45683;-80
2022/05/05 09:39:05;;;;;;;;;16.33;13.67;;;;;19.46;51.66;101544.53;5002456;28;48267;-82
2022/05/05 09:41:43;;;;;;;;;15.00;13.67;;;;;19.31;52.90;101538.38;4921771;28;47141;-80
2022/05/05 09:44:14;;;;;;;;;14.33;13.33;;;;;19.24;52.09;101539.34;4955861;28;45540;-80
2022/05/05 09:46:43;;;;;;;;;13.67;10.00;;;;;19.15;52.97;101548.41;5005211;28;45507;-81
2022/05/05 09:49:20;;;;;;;;;13.33;12.67;;;;;19.09;52.20;101544.88;4980470;28;47026;-82
2022/05/05 09:57:39;;;;;;;;;13.33;12.33;;;;;18.95;52.69;101537.78;4988405;28;45621;-76
2022/05/05 09:57:43;;;;;;;;;5.33;5.33;;;;;19.03;52.76;101539.50;5001545;28;45633;-78
2022/05/05 10:05:53;;;;;;;;;14.33;11.00;;;;;19.37;50.93;101532.06;4997285;28;45625;-79
2022/05/05 10:08:29;;;;;;;;;7.33;7.00;;;;;19.59;50.62;101527.28;4984748;28;45000;-81
2022/05/05 10:10:57;;;;;;;;;8.33;8.33;;;;;19.79;49.64;101535.22;4997440;28;46317;-78
2022/05/05 10:13:23;;;;;;;;;8.67;8.00;;;;;19.72;48.99;101531.69;4985328;28;45478;-80
2022/05/05 10:15:52;;;;;;;;;8.67;8.00;;;;;19.50;48.91;101530.13;5001015;28;45452;-78
2022/05/05 10:18:22;;;;;;;;;10.00;8.67;;;;;19.24;49.65;101536.66;5028648;28;45692;-79
2022/05/05 10:20:48;;;;;;;;;13.67;13.00;;;;;19.01;50.00;101541.31;5049089;28;46059;-79
2022/05/05 10:23:22;;;;;;;;;9.33;8.33;;;;;19.02;50.97;101538.63;5063651;28;45408;-79
2022/05/05 10:25:54;;;;;;;;;11.33;11.33;;;;;19.03;50.91;101542.22;5062445;28;45414;-79
2022/05/05 10:28:47;;;;;;;;;12.67;12.33;;;;;19.05;50.43;101540.44;5057897;28;45505;-78
2022/05/05 10:31:34;;;;;;;;;13.00;13.00;;;;;19.06;50.90;101539.50;5045679;28;47042;-78
2022/05/05 10:34:07;;;;;;;;;10.00;8.67;;;;;19.01;50.58;101526.06;5036409;28;45541;-79
2022/05/05 10:36:34;;;;;;;;;8.00;7.00;;;;;19.01;49.26;101535.94;5063244;28;45519;-80
2022/05/05 10:39:26;;;;;;;;;6.00;6.00;;;;;19.13;48.33;101531.34;5064098;28;45932;-80
2022/05/05 10:42:18;;;;;;;;;7.00;7.00;;;;;19.34;47.82;101524.84;5067148;28;46165;-79
2022/05/05 10:45:31;;;;;;;;;8.67;8.67;;;;;19.69;48.46;101529.00;5078682;28;45311;-79
2022/05/05 10:48:13;;;;;;;;;6.67;6.67;;;;;20.00;46.56;101520.59;5059929;28;45581;-78
2022/05/05 10:50:52;;;;;;;;;6.33;5.00;;;;;20.29;46.43;101524.69;5068128;28;45406;-78
2022/05/05 10:53:48;;;;;;;;;6.67;6.33;;;;;20.38;45.21;101522.78;5052391;28;46806;-80
2022/05/05 10:57:07;;;;;;;;;12.00;9.00;;;;;20.32;44.70;101522.84;5063388;28;44964;-79
2022/05/05 11:00:13;;;;;;;;;6.67;6.67;;;;;19.92;45.54;101526.06;5058304;28;45429;-81
2022/05/05 11:03:01;;;;;;;;;6.00;6.00;;;;;19.56;46.39;101530.03;5072487;28;45008;-81
2022/05/05 11:05:28;;;;;;;;;6.67;6.67;;;;;19.28;46.47;101497.94;5053480;28;45539;-80
2022/05/05 11:08:17;;;;;;;;;6.00;6.00;;;;;18.97;47.17;101478.47;5067648;28;45559;-81
2022/05/05 11:13:42;;;;;;;;;5.00;5.00;;;;;19.24;47.92;101538.44;5096121;28;44822;-78
2022/05/05 11:22:41;;;;;;;;;5.67;5.67;;;;;19.59;47.49;101524.59;5044427;28;45569;-80
2022/05/05 11:25:08;;;;;;;;;5.00;5.00;;;;;19.72;47.24;101531.69;5034227;28;44960;-79
2022/05/05 11:27:46;;;;;;;;;;;;;;;;;;;;;
2022/05/05 11:30:42;;;;;;;;;5.00;5.00;;;;;19.99;46.14;101514.25;5052989;28;72064;-82
2022/05/05 11:36:33;;;;;;;;;4.00;4.00;;;;;19.79;45.41;101516.31;5074785;28;45832;-80
2022/05/05 11:38:59;;;;;;;;;6.67;6.67;;;;;19.69;46.39;101515.53;5054364;28;45165;-79
2022/05/05 11:41:26;;;;;;;;;6.00;6.00;;;;;19.63;46.47;101507.47;5049456;28;45296;-79
2022/05/05 11:44:17;;;;;;;;;6.00;6.00;;;;;19.85;45.91;101526.16;5050778;28;45145;-81
2022/05/05 11:46:53;;;;;;;;;11.00;8.00;;;;;19.87;45.42;101511.72;5069543;28;45498;-79
2022/05/05 11:49:19;;;;;;;;;4.00;4.00;;;;;19.74;46.19;101491.22;5049054;28;46322;-78
2022/05/05 11:51:45;;;;;;;;;6.00;6.00;;;;;19.67;45.87;101493.03;5048006;28;45431;-79
2022/05/05 11:54:34;;;;;;;;;4.33;4.33;;;;;19.97;46.38;101516.09;5080220;27;45456;-79
2022/05/05 11:57:03;;;;;;;;;4.67;4.00;;;;;19.97;46.27;101504.41;5087454;27;45432;-78
2022/05/05 12:02:20;;;;;;;;;5.67;4.67;;;;;19.92;45.49;101506.28;5105092;27;45415;-78
2022/05/05 12:04:57;;;;;;;;;6.00;6.00;;;;;20.01;46.02;101516.94;5090100;27;45806;-77
2022/05/05 12:07:25;;;;;;;;;4.33;4.00;;;;;20.03;45.42;101512.41;5108157;27;44965;-79
2022/05/05 12:09:58;;;;;;;;;5.00;3.00;;;;;20.08;45.29;101507.00;5112539;27;45387;-78
2022/05/05 12:12:25;;;;;;;;;3.67;3.00;;;;;20.07;45.06;101507.88;5068616;28;45045;-78
2022/05/05 12:14:59;;;;;;;;;4.67;3.67;;;;;20.31;44.53;101514.75;5064726;28;46024;-80
2022/05/05 12:17:32;;;;;;;;;5.00;3.33;;;;;20.59;43.62;101504.47;5062043;28;45484;-80
2022/05/05 12:20:05;;;;;;;;;4.67;4.67;;;;;20.80;42.71;101503.25;5043997;28;46978;-79
2022/05/05 12:22:42;;;;;;;;;3.00;3.00;;;;;20.94;41.92;101511.13;5053038;28;45341;-79
2022/05/05 12:25:16;;;;;;;;;3.00;3.00;;;;;21.08;43.77;101489.25;5049594;28;45445;-80
2022/05/05 12:28:01;;;;;;;;;6.00;6.00;;;;;21.34;40.99;101500.50;5061670;28;45520;-81
2022/05/05 12:30:46;;;;;;;;;3.00;3.00;;;;;21.52;41.60;101493.00;5035426;28;46893;-79
2022/05/05 12:33:17;;;;;;;;;6.67;4.00;;;;;21.57;40.76;101485.66;5069251;28;45426;-80
2022/05/05 12:35:45;;;;;;;;;6.00;5.00;;;;;21.58;41.27;101492.88;5052230;28;44924;-80